createdAt,value
2019-04-30T09:33:12.106Z,34.31
2019-04-30T09:33:50.174Z,34.26
2019-04-30T09:34:26.298Z,34.27
2019-04-30T09:35:02.411Z,34.26
2019-04-30T09:35:39.590Z,34.27
2019-04-30T09:36:15.650Z,34.24
2019-04-30T09:36:51.697Z,34.19
2019-04-30T09:37:27.970Z,34.18
2019-04-30T09:38:04.197Z,34.16
2019-04-30T09:38:40.215Z,34.15
2019-04-30T09:39:16.229Z,34.15
2019-04-30T09:39:52.292Z,34.14
2019-04-30T09:40:32.338Z,34.13
2019-04-30T09:41:06.163Z,34.14
2019-04-30T09:41:42.238Z,34.14
2019-04-30T09:42:19.544Z,34.16
2019-04-30T09:42:55.843Z,34.13
2019-04-30T09:43:32.012Z,34.11
2019-04-30T09:44:10.012Z,34.10
2019-04-30T09:44:46.007Z,34.07
2019-04-30T09:45:22.088Z,34.09
2019-04-30T09:45:59.295Z,34.10
2019-04-30T09:46:35.484Z,34.11
2019-04-30T09:47:11.613Z,34.12
2019-04-30T09:47:47.799Z,34.14
2019-04-30T09:48:23.866Z,34.15
2019-04-30T09:49:00.006Z,34.16
2019-04-30T09:49:36.152Z,34.19
2019-04-30T09:50:14.452Z,34.21
2019-04-30T09:50:51.176Z,34.24
2019-04-30T09:51:29.909Z,34.25
2019-04-30T09:52:05.429Z,34.26
2019-04-30T09:52:41.958Z,34.27
2019-04-30T09:53:19.594Z,34.27
2019-04-30T09:53:59.648Z,34.28
2019-04-30T09:54:34.411Z,34.29
2019-04-30T09:55:10.861Z,34.30
2019-04-30T09:55:47.145Z,34.29
2019-04-30T09:56:23.298Z,34.29
2019-04-30T09:56:59.433Z,34.27
2019-04-30T09:57:35.515Z,34.26
2019-04-30T09:58:16.952Z,34.23
2019-04-30T09:58:49.449Z,34.20
2019-04-30T09:59:25.627Z,34.16
2019-04-30T10:00:01.678Z,34.16
2019-04-30T10:00:39.298Z,34.13
2019-04-30T10:01:15.585Z,34.13
2019-04-30T10:01:51.756Z,34.12
2019-04-30T10:02:29.113Z,34.11
2019-04-30T10:03:05.748Z,34.12
2019-04-30T10:03:42.463Z,34.12
2019-04-30T10:04:20.415Z,34.13
2019-04-30T10:04:57.388Z,34.13
2019-04-30T10:05:33.703Z,34.13
2019-04-30T10:06:09.799Z,34.14
2019-04-30T10:06:45.987Z,34.15
2019-04-30T10:07:22.072Z,34.15
2019-04-30T10:07:59.371Z,34.15
2019-04-30T10:08:46.123Z,34.15
2019-04-30T10:09:14.938Z,34.14
2019-04-30T10:09:51.102Z,34.13
2019-04-30T10:10:32.326Z,34.10
2019-04-30T10:11:36.148Z,34.09
2019-04-30T10:12:15.928Z,34.07
2019-04-30T10:12:52.084Z,34.01
2019-04-30T10:13:28.127Z,34.01
2019-04-30T10:14:04.275Z,33.99
2019-04-30T10:14:41.015Z,33.98
2019-04-30T10:15:30.530Z,33.98
2019-04-30T10:16:31.331Z,33.96
2019-04-30T10:17:26.263Z,33.93
2019-04-30T10:18:02.394Z,33.91
2019-04-30T10:18:38.569Z,33.87
2019-04-30T10:19:15.049Z,33.85
2019-04-30T10:19:51.097Z,33.85
2019-04-30T10:20:40.041Z,33.84
2019-04-30T10:21:16.203Z,33.80
2019-04-30T10:21:52.354Z,33.77
2019-04-30T10:22:28.541Z,33.74
2019-04-30T10:23:04.511Z,33.73
2019-04-30T10:23:40.654Z,33.72
2019-04-30T10:24:16.941Z,33.71
2019-04-30T10:24:53.058Z,33.71
2019-04-30T10:25:29.223Z,33.70
2019-04-30T10:26:05.480Z,33.71
2019-04-30T10:26:41.607Z,33.71
2019-04-30T10:27:19.159Z,33.70
2019-04-30T10:27:55.455Z,33.70
2019-04-30T10:28:31.666Z,33.66
2019-04-30T10:29:08.146Z,33.65
2019-04-30T10:29:44.392Z,33.64
2019-04-30T10:30:23.518Z,33.66
2019-04-30T10:30:59.614Z,33.64
2019-04-30T10:31:35.662Z,33.62
2019-04-30T10:32:12.012Z,33.62
2019-04-30T10:32:49.909Z,33.62
2019-04-30T10:33:25.965Z,33.62
2019-04-30T10:34:02.057Z,33.61
2019-04-30T10:34:38.154Z,33.61
2019-04-30T10:35:14.461Z,33.60
2019-04-30T10:35:51.009Z,33.59
2019-04-30T10:36:29.420Z,33.58
2019-04-30T10:37:05.185Z,33.56
2019-04-30T10:37:41.325Z,33.56
2019-04-30T10:38:19.504Z,33.55
2019-04-30T10:38:55.740Z,33.54
2019-04-30T10:39:32.029Z,33.53
2019-04-30T10:40:10.215Z,33.51
2019-04-30T10:40:48.631Z,33.51
2019-04-30T10:41:24.487Z,33.49
2019-04-30T10:42:00.619Z,33.50
2019-04-30T10:42:36.682Z,33.48
2019-04-30T10:43:12.764Z,33.48
2019-04-30T10:43:49.365Z,33.48
2019-04-30T10:44:25.462Z,33.48
2019-04-30T10:45:01.613Z,33.47
2019-04-30T10:45:38.800Z,33.46
2019-04-30T10:46:15.357Z,33.44
2019-04-30T10:46:51.451Z,33.44
2019-04-30T10:47:29.382Z,33.42
2019-04-30T10:48:05.345Z,33.40
2019-04-30T10:48:43.419Z,33.40
2019-04-30T10:49:19.466Z,33.39
2019-04-30T10:49:55.575Z,33.37
2019-04-30T10:50:31.760Z,33.38
2019-04-30T10:51:09.059Z,33.36
2019-04-30T10:51:45.358Z,33.35
2019-04-30T10:52:21.668Z,33.34
2019-04-30T10:52:59.093Z,33.32
2019-04-30T10:53:35.339Z,33.31
2019-04-30T10:54:23.208Z,33.31
2019-04-30T10:54:49.710Z,33.31
2019-04-30T10:55:25.833Z,33.29
2019-04-30T10:56:01.908Z,33.28
2019-04-30T10:56:38.084Z,33.28
2019-04-30T10:57:14.148Z,33.28
2019-04-30T10:57:50.256Z,33.27
2019-04-30T10:58:26.394Z,33.26
2019-04-30T10:59:02.430Z,33.25
2019-04-30T10:59:38.488Z,33.25
2019-04-30T11:00:16.439Z,33.23
2019-04-30T11:00:52.577Z,33.19
2019-04-30T11:01:29.168Z,33.17
2019-04-30T11:02:05.400Z,33.15
2019-04-30T11:02:41.535Z,33.15
2019-04-30T11:03:22.489Z,33.09
2019-04-30T11:03:55.437Z,33.09
2019-04-30T11:04:31.680Z,33.09
2019-04-30T11:05:08.136Z,33.08
2019-04-30T11:05:44.260Z,33.07
2019-04-30T11:06:20.364Z,33.07
2019-04-30T11:07:00.004Z,33.06
2019-04-30T11:07:34.295Z,33.06
2019-04-30T11:08:10.590Z,33.06
2019-04-30T11:08:46.613Z,33.06
2019-04-30T11:09:23.249Z,33.05
2019-04-30T11:09:59.344Z,33.03
2019-04-30T11:10:35.688Z,33.03
2019-04-30T11:11:11.923Z,33.02
2019-04-30T11:11:49.728Z,33.00
2019-04-30T11:12:26.044Z,33.00
2019-04-30T11:13:02.219Z,32.99
2019-04-30T11:13:38.356Z,32.97
2019-04-30T11:14:14.446Z,32.96
2019-04-30T11:14:50.480Z,32.94
2019-04-30T11:15:26.603Z,32.93
2019-04-30T11:16:12.634Z,32.92
2019-04-30T11:16:40.801Z,32.89
2019-04-30T11:17:17.122Z,32.87
2019-04-30T11:17:53.910Z,32.86
2019-04-30T11:18:30.327Z,32.84
2019-04-30T11:19:09.308Z,32.83
2019-04-30T11:19:45.348Z,32.82
2019-04-30T11:20:22.240Z,32.81
2019-04-30T11:20:59.715Z,32.79
2019-04-30T11:21:36.469Z,32.77
2019-04-30T11:22:12.809Z,32.76
2019-04-30T11:22:49.163Z,32.75
2019-04-30T11:23:25.648Z,32.72
2019-04-30T11:24:02.078Z,32.71
2019-04-30T11:24:53.779Z,32.70
2019-04-30T11:25:16.398Z,32.69
2019-04-30T11:25:53.100Z,32.68
2019-04-30T11:26:31.924Z,32.67
2019-04-30T11:27:07.972Z,32.64
2019-04-30T11:27:45.746Z,32.64
2019-04-30T11:28:22.842Z,32.63
2019-04-30T11:28:59.619Z,32.61
2019-04-30T11:29:35.883Z,32.58
2019-04-30T11:30:21.376Z,32.57
2019-04-30T11:30:52.632Z,32.56
2019-04-30T11:31:40.892Z,32.57
2019-04-30T11:32:20.132Z,32.55
2019-04-30T11:32:56.696Z,32.54
2019-04-30T11:33:33.177Z,32.53
2019-04-30T11:34:09.653Z,32.53
2019-04-30T11:34:45.920Z,32.52
2019-04-30T11:35:22.180Z,32.45
2019-04-30T11:36:03.003Z,32.44
2019-04-30T11:36:36.098Z,32.41
2019-04-30T11:37:12.114Z,32.39
2019-04-30T11:37:48.168Z,32.38
2019-04-30T11:38:24.208Z,32.36
2019-04-30T11:39:00.308Z,32.34
2019-04-30T11:39:36.427Z,32.31
2019-04-30T11:40:12.875Z,32.32
2019-04-30T11:40:49.011Z,32.30
2019-04-30T11:41:30.966Z,32.29
2019-04-30T11:42:03.608Z,32.28
2019-04-30T11:42:39.785Z,32.28
2019-04-30T11:43:15.865Z,32.27
2019-04-30T11:43:52.025Z,32.28
2019-04-30T11:44:31.348Z,32.27
2019-04-30T11:45:08.460Z,32.27
2019-04-30T11:46:15.146Z,32.27
2019-04-30T11:47:31.296Z,32.26
2019-04-30T11:48:09.048Z,32.23
2019-04-30T11:48:45.150Z,32.20
2019-04-30T11:49:21.248Z,32.18
2019-04-30T11:49:57.408Z,32.18
2019-04-30T11:50:33.490Z,32.18
2019-04-30T11:51:09.931Z,32.18
2019-04-30T11:51:46.052Z,32.17
2019-04-30T11:52:22.493Z,32.16
2019-04-30T11:53:13.959Z,32.17
2019-04-30T11:53:36.396Z,32.17
2019-04-30T11:54:12.490Z,32.16
2019-04-30T11:54:53.939Z,32.16
2019-04-30T11:55:26.600Z,32.15
2019-04-30T11:56:02.659Z,32.15
2019-04-30T11:56:38.816Z,32.14
2019-04-30T11:57:14.890Z,32.13
2019-04-30T11:57:51.044Z,32.10
2019-04-30T11:58:30.375Z,32.10
2019-04-30T11:59:04.971Z,32.09
2019-04-30T11:59:41.218Z,32.08
2019-04-30T12:00:24.712Z,32.08
2019-04-30T12:01:00.808Z,32.07
2019-04-30T12:01:36.884Z,32.07
2019-04-30T12:02:36.891Z,32.06
2019-04-30T12:03:13.081Z,32.05
2019-04-30T12:03:50.012Z,32.04
2019-04-30T12:04:26.260Z,32.04
2019-04-30T12:05:05.043Z,32.04
2019-04-30T12:05:40.168Z,32.01
2019-04-30T12:06:18.447Z,32.01
2019-04-30T12:06:58.905Z,31.99
2019-04-30T12:08:02.650Z,31.98
2019-04-30T12:08:45.084Z,31.97
2019-04-30T12:09:55.089Z,31.95
2019-04-30T12:10:41.369Z,31.94
2019-04-30T12:11:24.693Z,31.89
2019-04-30T12:12:00.760Z,31.88
2019-04-30T12:12:38.659Z,31.87
2019-04-30T12:13:30.976Z,31.87
2019-04-30T12:14:07.237Z,31.84
2019-04-30T12:14:43.902Z,31.82
2019-04-30T12:15:20.123Z,31.82
2019-04-30T12:15:58.825Z,31.81
2019-04-30T12:16:35.347Z,31.80
2019-04-30T12:17:11.472Z,31.77
2019-04-30T12:17:47.721Z,31.77
2019-04-30T12:18:24.041Z,31.77
2019-04-30T12:19:00.681Z,31.76
2019-04-30T12:19:38.380Z,31.76
2019-04-30T12:20:15.666Z,31.76
2019-04-30T12:20:51.801Z,31.75
2019-04-30T12:21:27.951Z,31.75
2019-04-30T12:22:04.017Z,31.75
2019-04-30T12:22:40.166Z,31.76
2019-04-30T12:23:16.259Z,31.77
2019-04-30T12:23:52.391Z,31.76
2019-04-30T12:24:30.228Z,31.78
2019-04-30T12:25:06.518Z,31.76
2019-04-30T12:25:42.840Z,31.76
2019-04-30T12:26:19.115Z,31.74
2019-04-30T12:26:55.241Z,31.75
2019-04-30T12:27:31.386Z,31.73
2019-04-30T12:28:09.438Z,31.73
2019-04-30T12:28:45.378Z,31.73
2019-04-30T12:29:21.532Z,31.72
2019-04-30T12:29:59.338Z,31.71
2019-04-30T12:30:35.551Z,31.68
2019-04-30T12:31:11.703Z,31.68
2019-04-30T12:31:47.799Z,31.65
2019-04-30T12:32:23.969Z,31.65
2019-04-30T12:33:00.157Z,31.63
2019-04-30T12:33:36.301Z,31.61
2019-04-30T12:34:12.428Z,31.58
2019-04-30T12:34:48.592Z,31.56
2019-04-30T12:35:24.658Z,31.56
2019-04-30T12:36:00.725Z,31.54
2019-04-30T12:36:38.716Z,31.54
2019-04-30T12:37:14.637Z,31.53
2019-04-30T12:37:52.371Z,31.52
2019-04-30T12:38:29.858Z,31.52
2019-04-30T12:39:07.076Z,31.48
2019-04-30T12:39:43.184Z,31.50
2019-04-30T12:40:29.036Z,31.48
2019-04-30T12:40:57.251Z,31.48
2019-04-30T12:41:33.272Z,31.47
2019-04-30T12:42:09.533Z,31.47
2019-04-30T12:42:45.780Z,31.48
2019-04-30T12:43:21.986Z,31.47
2019-04-30T12:43:58.170Z,31.47
2019-04-30T12:44:34.286Z,31.46
2019-04-30T12:45:10.644Z,31.46
2019-04-30T12:45:46.748Z,31.46
2019-04-30T12:46:23.037Z,31.45
2019-04-30T12:46:59.247Z,31.43
2019-04-30T12:47:39.361Z,31.43
2019-04-30T12:48:30.417Z,31.44
2019-04-30T12:49:11.655Z,31.44
2019-04-30T12:50:07.036Z,31.43
2019-04-30T12:51:07.871Z,31.44
2019-04-30T12:51:59.160Z,31.45
2019-04-30T12:52:39.911Z,31.45
2019-04-30T12:53:21.119Z,31.44
2019-04-30T12:54:03.637Z,31.44
2019-04-30T12:54:55.633Z,31.43
2019-04-30T12:56:00.394Z,31.42
2019-04-30T12:57:01.386Z,31.42
2019-04-30T12:57:42.790Z,31.41
2019-04-30T12:58:20.731Z,31.39
2019-04-30T12:58:56.680Z,31.41
2019-04-30T12:59:32.790Z,31.41
2019-04-30T13:00:11.718Z,31.40
2019-04-30T13:00:49.114Z,31.39
2019-04-30T13:01:25.326Z,31.41
2019-04-30T13:02:01.457Z,31.39
2019-04-30T13:02:37.587Z,31.41
2019-04-30T13:03:13.744Z,31.41
2019-04-30T13:03:58.034Z,31.42
2019-04-30T13:04:29.376Z,31.42
2019-04-30T13:05:05.772Z,31.42
2019-04-30T13:05:42.137Z,31.43
2019-04-30T13:06:18.843Z,31.44
2019-04-30T13:06:55.653Z,31.43
2019-04-30T13:07:32.501Z,31.43
2019-04-30T13:08:09.960Z,31.44
2019-04-30T13:08:46.991Z,31.44
2019-04-30T13:09:24.691Z,31.44
2019-04-30T13:10:02.461Z,31.43
2019-04-30T13:10:39.463Z,31.45
2019-04-30T13:11:16.605Z,31.44
2019-04-30T13:11:53.543Z,31.45
2019-04-30T13:12:30.579Z,31.46
2019-04-30T13:13:07.623Z,31.47
2019-04-30T13:13:44.871Z,31.41
2019-04-30T13:14:21.665Z,31.45
2019-04-30T13:14:58.094Z,31.48
2019-04-30T13:15:34.309Z,31.48
2019-04-30T13:16:10.627Z,31.47
2019-04-30T13:16:46.873Z,31.47
2019-04-30T13:17:23.399Z,31.50
2019-04-30T13:17:59.499Z,31.50
2019-04-30T13:18:35.656Z,31.51
2019-04-30T13:19:11.852Z,31.51
2019-04-30T13:19:47.979Z,31.52
2019-04-30T13:20:24.451Z,31.52
2019-04-30T13:21:00.882Z,31.52
2019-04-30T13:21:37.041Z,31.52
2019-04-30T13:22:13.187Z,31.54
2019-04-30T13:22:49.347Z,31.54
2019-04-30T13:23:25.492Z,31.53
2019-04-30T13:24:01.605Z,31.53
2019-04-30T13:24:39.608Z,31.54
2019-04-30T13:25:27.240Z,31.50
2019-04-30T13:25:54.037Z,31.53
2019-04-30T13:26:30.387Z,31.53
2019-04-30T13:27:06.494Z,31.53
2019-04-30T13:27:46.283Z,31.52
2019-04-30T13:28:23.980Z,31.51
2019-04-30T13:29:05.103Z,31.52
2019-04-30T13:29:55.835Z,31.51
2019-04-30T13:30:32.694Z,31.51
2019-04-30T13:31:09.288Z,31.49
2019-04-30T13:31:45.449Z,31.50
2019-04-30T13:32:29.596Z,31.48
2019-04-30T13:33:13.804Z,31.47
2019-04-30T13:33:53.983Z,31.45
2019-04-30T13:34:55.155Z,31.44
2019-04-30T13:35:31.251Z,31.42
2019-04-30T13:36:08.761Z,31.39
2019-04-30T13:36:44.948Z,31.38
2019-04-30T13:37:21.076Z,31.37
2019-04-30T13:38:02.002Z,31.35
2019-04-30T13:38:59.400Z,31.35
2019-04-30T13:39:50.161Z,31.32
2019-04-30T13:40:35.694Z,31.28
2019-04-30T13:41:39.483Z,31.29
2019-04-30T13:42:20.726Z,31.21
2019-04-30T13:42:57.084Z,31.19
2019-04-30T13:43:50.688Z,31.19
2019-04-30T13:44:32.768Z,31.18
2019-04-30T13:45:09.076Z,31.11
2019-04-30T13:45:45.194Z,31.11
2019-04-30T13:46:21.246Z,31.10
2019-04-30T13:46:57.431Z,31.10
2019-04-30T13:47:33.630Z,31.10
2019-04-30T13:48:09.791Z,31.08
2019-04-30T13:48:45.844Z,31.08
2019-04-30T13:49:21.873Z,31.09
2019-04-30T13:49:59.388Z,31.08
2019-04-30T13:50:35.500Z,31.02
2019-04-30T13:51:11.595Z,31.09
2019-04-30T13:51:47.796Z,31.09
2019-04-30T13:52:24.055Z,31.09
2019-04-30T13:53:00.227Z,31.10
2019-04-30T13:53:36.336Z,31.10
2019-04-30T13:54:12.469Z,31.10
2019-04-30T13:54:48.563Z,31.10
2019-04-30T13:55:24.662Z,31.12
2019-04-30T13:56:01.022Z,31.11
2019-04-30T13:56:37.115Z,31.06
2019-04-30T13:57:13.323Z,31.10
2019-04-30T13:57:49.454Z,31.11
2019-04-30T13:58:25.586Z,31.12
2019-04-30T13:59:01.716Z,31.13
2019-04-30T13:59:37.857Z,31.12
2019-04-30T14:00:18.611Z,31.13
2019-04-30T14:00:54.640Z,31.07
2019-04-30T14:01:30.755Z,31.12
2019-04-30T14:02:08.711Z,31.11
2019-04-30T14:02:51.249Z,31.11
2019-04-30T14:03:36.164Z,31.11
2019-04-30T14:04:34.334Z,31.10
2019-04-30T14:05:15.260Z,31.08
2019-04-30T14:05:51.745Z,31.08
2019-04-30T14:06:29.015Z,31.02
2019-04-30T14:07:13.997Z,31.02
2019-04-30T14:08:06.363Z,31.06
2019-04-30T14:08:45.811Z,31.06
2019-04-30T14:09:25.855Z,31.04
2019-04-30T14:10:01.997Z,31.02
2019-04-30T14:10:40.712Z,31.02
2019-04-30T14:11:16.810Z,31.02
2019-04-30T14:11:52.952Z,31.01
2019-04-30T14:12:30.882Z,31.02
2019-04-30T14:13:07.907Z,31.02
2019-04-30T14:13:44.018Z,31.01
2019-04-30T14:14:20.167Z,31.01
2019-04-30T14:14:56.296Z,31.00
2019-04-30T14:15:32.666Z,31.01
2019-04-30T14:16:08.901Z,31.01
2019-04-30T14:16:45.028Z,31.02
2019-04-30T14:17:21.166Z,30.97
2019-04-30T14:17:57.139Z,31.02
2019-04-30T14:18:34.205Z,31.01
2019-04-30T14:19:10.519Z,31.02
2019-04-30T14:19:46.663Z,30.97
2019-04-30T14:20:22.696Z,30.97
2019-04-30T14:21:00.819Z,31.01
2019-04-30T14:21:36.572Z,31.01
2019-04-30T14:22:13.095Z,31.01
2019-04-30T14:22:49.254Z,31.01
2019-04-30T14:23:25.385Z,31.00
2019-04-30T14:24:01.488Z,30.99
2019-04-30T14:24:37.716Z,30.96
2019-04-30T14:25:14.026Z,30.96
2019-04-30T14:25:56.708Z,31.00
2019-04-30T14:26:29.212Z,30.98
2019-04-30T14:27:06.389Z,30.95
2019-04-30T14:27:49.250Z,30.97
2019-04-30T14:28:20.312Z,30.96
2019-04-30T14:28:56.520Z,30.96
2019-04-30T14:29:32.714Z,30.96
2019-04-30T14:30:09.362Z,30.95
2019-04-30T14:30:45.423Z,30.95
2019-04-30T14:31:21.631Z,30.90
2019-04-30T14:31:58.774Z,30.90
2019-04-30T14:32:35.137Z,30.91
2019-04-30T14:33:22.744Z,30.92
2019-04-30T14:33:49.080Z,30.92
2019-04-30T14:34:25.213Z,30.92
2019-04-30T14:35:01.337Z,30.92
2019-04-30T14:35:38.669Z,30.92
2019-04-30T14:36:14.942Z,30.92
2019-04-30T14:36:51.014Z,30.93
2019-04-30T14:37:27.016Z,30.93
2019-04-30T14:38:05.192Z,30.93
2019-04-30T14:38:40.932Z,30.93
2019-04-30T14:39:17.459Z,30.84
2019-04-30T14:39:54.414Z,30.88
2019-04-30T14:40:31.808Z,30.88
2019-04-30T14:41:08.828Z,30.93
2019-04-30T14:41:47.604Z,30.93
2019-04-30T14:42:24.581Z,30.88
2019-04-30T14:43:16.044Z,30.85
2019-04-30T14:43:57.833Z,30.88
2019-04-30T14:44:35.360Z,30.87
2019-04-30T14:45:19.401Z,30.87
2019-04-30T14:46:33.685Z,30.85
2019-04-30T14:47:45.118Z,30.85
2019-04-30T14:48:31.249Z,30.80
2019-04-30T14:49:26.407Z,30.70
2019-04-30T14:50:11.367Z,30.70
2019-04-30T14:50:48.985Z,30.69
2019-04-30T14:51:25.439Z,30.64
2019-04-30T14:52:01.561Z,30.64
2019-04-30T14:52:44.824Z,30.68
2019-04-30T14:53:39.967Z,30.68
2019-04-30T14:54:24.669Z,30.68
2019-04-30T14:55:31.654Z,30.66
2019-04-30T14:56:19.748Z,30.67
2019-04-30T14:57:00.315Z,30.66
2019-04-30T14:57:52.855Z,30.61
2019-04-30T14:58:46.017Z,30.65
2019-04-30T14:59:39.341Z,30.60
2019-04-30T15:00:42.049Z,30.65
2019-04-30T15:01:51.562Z,30.63
2019-04-30T15:02:36.086Z,30.63
2019-04-30T15:03:14.032Z,30.53
2019-04-30T15:03:50.136Z,30.52
2019-04-30T15:04:26.299Z,30.51
2019-04-30T15:05:02.511Z,30.55
2019-04-30T15:05:48.198Z,30.55
2019-04-30T15:06:16.929Z,30.55
2019-04-30T15:06:53.129Z,30.56
2019-04-30T15:07:29.636Z,30.56
2019-04-30T15:08:05.959Z,30.51
2019-04-30T15:08:42.136Z,30.51
2019-04-30T15:09:18.656Z,30.52
2019-04-30T15:09:54.786Z,30.55
2019-04-30T15:10:30.953Z,30.55
2019-04-30T15:11:08.953Z,30.55
2019-04-30T15:11:45.308Z,30.56
2019-04-30T15:12:21.449Z,30.51
2019-04-30T15:12:57.657Z,30.58
2019-04-30T15:13:33.758Z,30.57
2019-04-30T15:14:10.538Z,30.59
2019-04-30T15:14:46.652Z,30.59
2019-04-30T15:15:22.756Z,30.60
2019-04-30T15:15:58.957Z,30.55
2019-04-30T15:16:35.161Z,30.55
2019-04-30T15:17:11.246Z,30.59
2019-04-30T15:17:49.299Z,30.59
2019-04-30T15:18:25.589Z,30.59
2019-04-30T15:19:01.815Z,30.59
2019-04-30T15:19:38.009Z,30.54
2019-04-30T15:20:14.372Z,30.54
2019-04-30T15:20:50.601Z,30.56
2019-04-30T15:21:26.743Z,30.56
2019-04-30T15:22:04.034Z,30.56
2019-04-30T15:22:42.846Z,30.53
2019-04-30T15:23:35.984Z,30.55
2019-04-30T15:24:19.259Z,30.55
2019-04-30T15:24:55.578Z,30.49
2019-04-30T15:25:34.228Z,30.53
2019-04-30T15:26:21.649Z,30.52
2019-04-30T15:26:57.102Z,30.51
2019-04-30T15:27:25.365Z,30.51
2019-04-30T15:28:01.810Z,30.48
2019-04-30T15:28:39.290Z,30.46
2019-04-30T15:29:16.311Z,30.46
2019-04-30T15:29:57.281Z,30.43
2019-04-30T15:30:30.524Z,30.44
2019-04-30T15:31:08.465Z,30.43
2019-04-30T15:31:44.592Z,30.42
2019-04-30T15:32:20.784Z,30.43
2019-04-30T15:33:01.954Z,30.43
2019-04-30T15:33:45.106Z,30.43
2019-04-30T15:34:21.209Z,30.43
2019-04-30T15:34:58.898Z,30.43
2019-04-30T15:35:35.207Z,30.43
2019-04-30T15:36:11.384Z,30.44
2019-04-30T15:36:49.150Z,30.44
2019-04-30T15:37:25.327Z,30.41
2019-04-30T15:38:01.527Z,30.43
2019-04-30T15:38:54.829Z,30.39
2019-04-30T15:39:52.273Z,30.38
2019-04-30T15:40:28.871Z,30.42
2019-04-30T15:41:04.982Z,30.42
2019-04-30T15:41:41.066Z,30.41
2019-04-30T15:42:18.531Z,30.41
2019-04-30T15:42:56.642Z,30.39
2019-04-30T15:43:32.836Z,30.39
2019-04-30T15:44:09.061Z,30.39
2019-04-30T15:44:45.826Z,30.37
2019-04-30T15:45:22.201Z,30.35
2019-04-30T15:45:58.305Z,30.38
2019-04-30T15:46:34.537Z,30.38
2019-04-30T15:47:10.736Z,30.34
2019-04-30T15:47:48.568Z,30.34
2019-04-30T15:48:24.939Z,30.37
2019-04-30T15:49:01.308Z,30.34
2019-04-30T15:49:37.473Z,30.38
2019-04-30T15:50:13.739Z,30.33
2019-04-30T15:50:49.858Z,30.37
2019-04-30T15:51:25.912Z,30.37
2019-04-30T15:52:02.088Z,30.37
2019-04-30T15:52:38.705Z,30.37
2019-04-30T15:53:14.901Z,30.38
2019-04-30T15:53:51.021Z,30.39
2019-04-30T15:54:29.168Z,30.39
2019-04-30T15:55:05.141Z,30.38
2019-04-30T15:55:41.253Z,30.37
2019-04-30T15:56:19.179Z,30.33
2019-04-30T15:56:55.299Z,30.38
2019-04-30T15:57:31.440Z,30.41
2019-04-30T15:58:14.774Z,30.39
2019-04-30T15:59:09.031Z,30.39
2019-04-30T15:59:46.429Z,30.41
2019-04-30T16:00:23.155Z,30.41
2019-04-30T16:00:59.828Z,30.41
2019-04-30T16:01:36.479Z,30.42
2019-04-30T16:02:30.071Z,30.44
2019-04-30T16:03:12.080Z,30.44
2019-04-30T16:03:49.086Z,30.40
2019-04-30T16:04:34.768Z,30.40
2019-04-30T16:05:32.945Z,30.40
2019-04-30T16:06:10.463Z,30.39
2019-04-30T16:06:49.047Z,30.36
2019-04-30T16:07:24.472Z,30.31
2019-04-30T16:08:29.087Z,30.31
2019-04-30T16:09:07.124Z,30.34
2019-04-30T16:10:05.548Z,30.34
2019-04-30T16:11:03.155Z,30.33
2019-04-30T16:11:54.268Z,30.33
2019-04-30T16:12:39.111Z,30.31
2019-04-30T16:13:19.492Z,30.29
2019-04-30T16:14:20.475Z,30.29
2019-04-30T16:14:56.697Z,30.29
2019-04-30T16:15:32.920Z,30.27
2019-04-30T16:16:09.187Z,30.28
2019-04-30T16:16:50.032Z,30.29
2019-04-30T16:17:26.377Z,30.29
2019-04-30T16:18:03.034Z,30.29
2019-04-30T16:18:49.320Z,30.28
2019-04-30T16:19:25.627Z,30.29
2019-04-30T16:20:01.779Z,30.28
2019-04-30T16:20:39.326Z,30.28
2019-04-30T16:21:15.544Z,30.28
2019-04-30T16:21:52.086Z,30.28
2019-04-30T16:22:29.163Z,30.29
2019-04-30T16:23:05.342Z,30.29
2019-04-30T16:23:41.397Z,30.31
2019-04-30T16:24:18.738Z,30.30
2019-04-30T16:24:54.922Z,30.30
2019-04-30T16:25:31.142Z,30.24
2019-04-30T16:26:07.312Z,30.26
2019-04-30T16:26:49.511Z,30.26
2019-04-30T16:27:21.338Z,30.24
2019-04-30T16:27:57.403Z,30.16
2019-04-30T16:28:33.915Z,30.16
2019-04-30T16:29:10.065Z,30.22
2019-04-30T16:29:46.361Z,30.22
2019-04-30T16:30:22.754Z,30.18
2019-04-30T16:30:58.826Z,30.18
2019-04-30T16:31:34.969Z,30.23
2019-04-30T16:32:11.497Z,30.23
2019-04-30T16:32:50.789Z,30.24
2019-04-30T16:33:29.349Z,30.24
2019-04-30T16:34:05.074Z,30.23
2019-04-30T16:34:41.225Z,30.18
2019-04-30T16:35:17.326Z,30.18
2019-04-30T16:35:54.912Z,30.18
2019-04-30T16:36:31.199Z,30.23
2019-04-30T16:37:07.252Z,30.21
2019-04-30T16:37:43.378Z,30.23
2019-04-30T16:38:20.925Z,30.24
2019-04-30T16:38:58.633Z,30.25
2019-04-30T16:39:34.872Z,30.25
2019-04-30T16:40:11.023Z,30.23
2019-04-30T16:40:48.856Z,30.25
2019-04-30T16:41:31.679Z,30.25
2019-04-30T16:42:05.230Z,30.26
2019-04-30T16:42:41.643Z,30.21
2019-04-30T16:43:18.642Z,30.26
2019-04-30T16:43:55.993Z,30.26
2019-04-30T16:44:32.316Z,30.22
2019-04-30T16:45:09.403Z,30.22
2019-04-30T16:45:45.810Z,30.26
2019-04-30T16:46:22.129Z,30.26
2019-04-30T16:46:59.667Z,30.26
2019-04-30T16:47:36.084Z,30.27
2019-04-30T16:48:12.642Z,30.27
2019-04-30T16:48:49.426Z,30.22
2019-04-30T16:49:25.554Z,30.22
2019-04-30T16:50:01.768Z,30.27
2019-04-30T16:50:37.885Z,30.27
2019-04-30T16:51:14.087Z,30.28
2019-04-30T16:51:50.188Z,30.24
2019-04-30T16:52:26.289Z,30.21
2019-04-30T16:53:02.419Z,30.22
2019-04-30T16:53:40.244Z,30.27
2019-04-30T16:54:16.379Z,30.22
2019-04-30T16:54:52.557Z,30.22
2019-04-30T16:55:28.707Z,30.28
2019-04-30T16:56:04.846Z,30.28
2019-04-30T16:56:40.987Z,30.29
2019-04-30T16:57:17.180Z,30.29
2019-04-30T16:57:53.461Z,30.28
2019-04-30T16:58:31.410Z,30.30
2019-04-30T16:59:09.143Z,30.30
2019-04-30T16:59:45.272Z,30.30
2019-04-30T17:00:21.761Z,30.31
2019-04-30T17:00:59.346Z,30.31
2019-04-30T17:01:36.286Z,30.26
2019-04-30T17:02:13.221Z,30.32
2019-04-30T17:02:53.497Z,30.32
2019-04-30T17:03:38.855Z,30.33
2019-04-30T17:04:32.285Z,30.33
2019-04-30T17:05:23.336Z,30.33
2019-04-30T17:06:04.286Z,30.33
2019-04-30T17:06:42.439Z,30.30
2019-04-30T17:07:46.361Z,30.33
2019-04-30T17:08:39.188Z,30.36
2019-04-30T17:09:21.454Z,30.34
2019-04-30T17:10:04.742Z,30.29
2019-04-30T17:11:02.579Z,30.33
2019-04-30T17:11:55.594Z,30.28
2019-04-30T17:12:43.026Z,30.28
2019-04-30T17:13:24.054Z,30.32
2019-04-30T17:14:03.393Z,30.30
2019-04-30T17:14:39.850Z,30.30
2019-04-30T17:15:19.278Z,30.31
2019-04-30T17:15:58.741Z,30.31
2019-04-30T17:16:34.816Z,30.27
2019-04-30T17:17:11.045Z,30.29
2019-04-30T17:17:49.636Z,30.28
2019-04-30T17:18:25.070Z,30.28
2019-04-30T17:19:01.164Z,30.33
2019-04-30T17:19:39.243Z,30.33
2019-04-30T17:20:15.108Z,30.33
2019-04-30T17:20:51.233Z,30.33
2019-04-30T17:21:29.550Z,30.34
2019-04-30T17:22:05.279Z,30.34
2019-04-30T17:22:41.352Z,30.29
2019-04-30T17:23:19.262Z,30.35
2019-04-30T17:23:55.253Z,30.35
2019-04-30T17:24:31.347Z,30.30
2019-04-30T17:25:07.748Z,30.30
2019-04-30T17:25:43.869Z,30.30
2019-04-30T17:26:20.079Z,30.30
2019-04-30T17:26:56.130Z,30.30
2019-04-30T17:27:32.188Z,30.36
2019-04-30T17:28:09.150Z,30.36
2019-04-30T17:28:45.452Z,30.36
2019-04-30T17:29:21.781Z,30.35
2019-04-30T17:29:57.918Z,30.36
2019-04-30T17:30:34.176Z,30.36
2019-04-30T17:31:10.307Z,30.34
2019-04-30T17:31:46.476Z,30.31
2019-04-30T17:32:22.641Z,30.31
2019-04-30T17:32:59.754Z,30.37
2019-04-30T17:33:36.051Z,30.39
2019-04-30T17:34:12.216Z,30.39
2019-04-30T17:34:49.219Z,30.34
2019-04-30T17:35:25.398Z,30.34
2019-04-30T17:36:01.514Z,30.40
2019-04-30T17:36:39.635Z,30.40
2019-04-30T17:37:15.407Z,30.41
2019-04-30T17:37:51.575Z,30.40
2019-04-30T17:38:27.777Z,30.42
2019-04-30T17:39:04.020Z,30.37
2019-04-30T17:39:41.118Z,30.41
2019-04-30T17:40:19.273Z,30.41
2019-04-30T17:40:55.409Z,30.41
2019-04-30T17:41:31.443Z,30.42
2019-04-30T17:42:07.595Z,30.42
2019-04-30T17:42:43.819Z,30.42
2019-04-30T17:43:19.829Z,30.42
2019-04-30T17:43:55.963Z,30.39
2019-04-30T17:44:31.997Z,30.39
2019-04-30T17:45:09.444Z,30.38
2019-04-30T17:45:45.904Z,30.37
2019-04-30T17:46:22.044Z,30.37
2019-04-30T17:46:59.980Z,30.37
2019-04-30T17:47:36.030Z,30.37
2019-04-30T17:48:12.153Z,30.38
2019-04-30T17:48:49.520Z,30.37
2019-04-30T17:49:25.946Z,30.38